sensor_id;sensor_type;location;lat;lon;timestamp;P1;durP1;ratioP1;P2;durP2;ratioP2
12861;SDS011;6499;66.348;14.134;2023-06-19T00:01:52;5.97;;;5.47;;
12861;SDS011;6499;66.348;14.134;2023-06-19T00:04:18;6.00;;;5.50;;
12861;SDS011;6499;66.348;14.134;2023-06-19T00:06:45;6.53;;;5.30;;
12861;SDS011;6499;66.348;14.134;2023-06-19T00:09:11;5.97;;;5.37;;
12861;SDS011;6499;66.348;14.134;2023-06-19T00:11:39;5.50;;;5.10;;
12861;SDS011;6499;66.348;14.134;2023-06-19T00:14:06;6.23;;;5.73;;
12861;SDS011;6499;66.348;14.134;2023-06-19T00:16:32;6.60;;;5.20;;
12861;SDS011;6499;66.348;14.134;2023-06-19T00:18:59;5.97;;;5.47;;
12861;SDS011;6499;66.348;14.134;2023-06-19T00:21:28;6.10;;;5.50;;
12861;SDS011;6499;66.348;14.134;2023-06-19T00:23:55;5.70;;;5.30;;
12861;SDS011;6499;66.348;14.134;2023-06-19T00:26:21;6.83;;;5.63;;
12861;SDS011;6499;66.348;14.134;2023-06-19T00:28:51;5.43;;;4.93;;
12861;SDS011;6499;66.348;14.134;2023-06-19T00:31:18;5.97;;;5.47;;
12861;SDS011;6499;66.348;14.134;2023-06-19T00:33:45;6.27;;;5.70;;
12861;SDS011;6499;66.348;14.134;2023-06-19T00:36:12;5.23;;;4.73;;
12861;SDS011;6499;66.348;14.134;2023-06-19T00:38:39;5.80;;;5.30;;
12861;SDS011;6499;66.348;14.134;2023-06-19T00:41:05;5.93;;;5.43;;
12861;SDS011;6499;66.348;14.134;2023-06-19T00:43:32;5.87;;;5.37;;
12861;SDS011;6499;66.348;14.134;2023-06-19T00:46:01;6.20;;;5.70;;
12861;SDS011;6499;66.348;14.134;2023-06-19T00:48:28;6.47;;;5.87;;
12861;SDS011;6499;66.348;14.134;2023-06-19T00:50:54;6.00;;;5.40;;
12861;SDS011;6499;66.348;14.134;2023-06-19T00:53:22;6.00;;;5.50;;
12861;SDS011;6499;66.348;14.134;2023-06-19T00:55:49;6.00;;;5.50;;
12861;SDS011;6499;66.348;14.134;2023-06-19T00:58:17;6.17;;;5.60;;
12861;SDS011;6499;66.348;14.134;2023-06-19T01:00:43;6.40;;;5.80;;
12861;SDS011;6499;66.348;14.134;2023-06-19T01:03:11;6.30;;;5.70;;
12861;SDS011;6499;66.348;14.134;2023-06-19T01:05:38;8.43;;;5.67;;
12861;SDS011;6499;66.348;14.134;2023-06-19T01:08:05;7.30;;;5.83;;
12861;SDS011;6499;66.348;14.134;2023-06-19T01:10:35;9.67;;;6.50;;
12861;SDS011;6499;66.348;14.134;2023-06-19T01:13:06;11.40;;;5.97;;
12861;SDS011;6499;66.348;14.134;2023-06-19T01:15:33;15.90;;;6.83;;
12861;SDS011;6499;66.348;14.134;2023-06-19T01:18:00;11.27;;;5.77;;
12861;SDS011;6499;66.348;14.134;2023-06-19T01:20:28;11.40;;;6.20;;
12861;SDS011;6499;66.348;14.134;2023-06-19T01:23:06;9.00;;;5.90;;
12861;SDS011;6499;66.348;14.134;2023-06-19T01:25:32;8.87;;;6.30;;
12861;SDS011;6499;66.348;14.134;2023-06-19T01:27:59;8.43;;;5.93;;
12861;SDS011;6499;66.348;14.134;2023-06-19T01:30:25;6.83;;;5.90;;
12861;SDS011;6499;66.348;14.134;2023-06-19T01:32:53;7.43;;;5.93;;
12861;SDS011;6499;66.348;14.134;2023-06-19T01:35:22;7.60;;;5.60;;
12861;SDS011;6499;66.348;14.134;2023-06-19T01:37:49;5.63;;;5.10;;
12861;SDS011;6499;66.348;14.134;2023-06-19T01:40:18;5.97;;;5.40;;
12861;SDS011;6499;66.348;14.134;2023-06-19T01:42:46;5.57;;;5.07;;
12861;SDS011;6499;66.348;14.134;2023-06-19T01:45:13;6.00;;;5.50;;
12861;SDS011;6499;66.348;14.134;2023-06-19T01:47:39;6.37;;;5.63;;
12861;SDS011;6499;66.348;14.134;2023-06-19T01:50:06;5.90;;;5.33;;
12861;SDS011;6499;66.348;14.134;2023-06-19T01:52:34;6.17;;;5.57;;
12861;SDS011;6499;66.348;14.134;2023-06-19T01:55:00;6.23;;;5.73;;
12861;SDS011;6499;66.348;14.134;2023-06-19T01:57:29;5.97;;;5.40;;
12861;SDS011;6499;66.348;14.134;2023-06-19T01:59:55;6.10;;;5.60;;
12861;SDS011;6499;66.348;14.134;2023-06-19T02:02:22;6.37;;;5.60;;
12861;SDS011;6499;66.348;14.134;2023-06-19T02:04:48;7.17;;;5.80;;
12861;SDS011;6499;66.348;14.134;2023-06-19T02:07:15;6.07;;;5.47;;
12861;SDS011;6499;66.348;14.134;2023-06-19T02:09:41;6.20;;;5.47;;
12861;SDS011;6499;66.348;14.134;2023-06-19T02:12:08;6.80;;;5.47;;
12861;SDS011;6499;66.348;14.134;2023-06-19T02:14:36;6.20;;;5.70;;
12861;SDS011;6499;66.348;14.134;2023-06-19T02:17:02;5.77;;;5.27;;
12861;SDS011;6499;66.348;14.134;2023-06-19T02:19:29;6.77;;;6.03;;
12861;SDS011;6499;66.348;14.134;2023-06-19T02:21:55;6.80;;;6.20;;
12861;SDS011;6499;66.348;14.134;2023-06-19T02:24:22;5.93;;;5.33;;
12861;SDS011;6499;66.348;14.134;2023-06-19T02:26:49;5.97;;;5.47;;
12861;SDS011;6499;66.348;14.134;2023-06-19T02:29:16;5.97;;;5.47;;
12861;SDS011;6499;66.348;14.134;2023-06-19T02:31:44;5.70;;;5.20;;
12861;SDS011;6499;66.348;14.134;2023-06-19T02:34:10;5.80;;;5.30;;
12861;SDS011;6499;66.348;14.134;2023-06-19T02:36:37;7.13;;;6.30;;
12861;SDS011;6499;66.348;14.134;2023-06-19T02:39:03;6.10;;;5.50;;
12861;SDS011;6499;66.348;14.134;2023-06-19T02:41:30;5.53;;;5.03;;
12861;SDS011;6499;66.348;14.134;2023-06-19T02:43:57;6.70;;;5.33;;
12861;SDS011;6499;66.348;14.134;2023-06-19T02:46:23;6.90;;;6.20;;
12861;SDS011;6499;66.348;14.134;2023-06-19T02:48:51;6.00;;;5.50;;
12861;SDS011;6499;66.348;14.134;2023-06-19T02:51:18;5.87;;;5.37;;
12861;SDS011;6499;66.348;14.134;2023-06-19T02:53:44;5.77;;;5.20;;
12861;SDS011;6499;66.348;14.134;2023-06-19T02:56:11;5.70;;;5.20;;
12861;SDS011;6499;66.348;14.134;2023-06-19T02:58:37;6.00;;;5.50;;
12861;SDS011;6499;66.348;14.134;2023-06-19T03:01:04;6.30;;;5.80;;
12861;SDS011;6499;66.348;14.134;2023-06-19T03:03:32;6.50;;;5.90;;
12861;SDS011;6499;66.348;14.134;2023-06-19T03:06:04;6.27;;;5.63;;
12861;SDS011;6499;66.348;14.134;2023-06-19T03:08:30;6.40;;;5.90;;
12861;SDS011;6499;66.348;14.134;2023-06-19T03:10:57;6.20;;;5.70;;
12861;SDS011;6499;66.348;14.134;2023-06-19T03:13:23;5.57;;;5.10;;
12861;SDS011;6499;66.348;14.134;2023-06-19T03:15:51;5.80;;;5.30;;
12861;SDS011;6499;66.348;14.134;2023-06-19T03:18:18;6.07;;;5.57;;
12861;SDS011;6499;66.348;14.134;2023-06-19T03:20:44;5.73;;;5.13;;
12861;SDS011;6499;66.348;14.134;2023-06-19T03:23:12;6.23;;;5.73;;
12861;SDS011;6499;66.348;14.134;2023-06-19T03:25:38;5.67;;;5.17;;
12861;SDS011;6499;66.348;14.134;2023-06-19T03:28:08;6.23;;;5.70;;
12861;SDS011;6499;66.348;14.134;2023-06-19T03:30:34;6.87;;;6.27;;
12861;SDS011;6499;66.348;14.134;2023-06-19T03:33:01;6.23;;;5.63;;
12861;SDS011;6499;66.348;14.134;2023-06-19T03:35:27;6.17;;;5.67;;
12861;SDS011;6499;66.348;14.134;2023-06-19T03:37:54;5.80;;;5.30;;
12861;SDS011;6499;66.348;14.134;2023-06-19T03:40:22;5.83;;;5.33;;
12861;SDS011;6499;66.348;14.134;2023-06-19T03:42:48;5.87;;;5.37;;
12861;SDS011;6499;66.348;14.134;2023-06-19T03:45:15;6.53;;;5.93;;
12861;SDS011;6499;66.348;14.134;2023-06-19T03:47:41;5.70;;;5.20;;
12861;SDS011;6499;66.348;14.134;2023-06-19T03:50:08;5.90;;;5.30;;
12861;SDS011;6499;66.348;14.134;2023-06-19T03:52:35;6.00;;;5.50;;
12861;SDS011;6499;66.348;14.134;2023-06-19T03:55:04;5.97;;;5.47;;
12861;SDS011;6499;66.348;14.134;2023-06-19T03:57:32;6.27;;;5.77;;
12861;SDS011;6499;66.348;14.134;2023-06-19T03:59:59;6.03;;;5.53;;
12861;SDS011;6499;66.348;14.134;2023-06-19T04:02:25;6.30;;;5.70;;
12861;SDS011;6499;66.348;14.134;2023-06-19T04:04:52;5.60;;;5.10;;
12861;SDS011;6499;66.348;14.134;2023-06-19T04:07:19;5.70;;;5.30;;
12861;SDS011;6499;66.348;14.134;2023-06-19T04:09:46;5.90;;;5.40;;
12861;SDS011;6499;66.348;14.134;2023-06-19T04:12:12;5.83;;;5.40;;
12861;SDS011;6499;66.348;14.134;2023-06-19T04:14:40;6.07;;;5.57;;
12861;SDS011;6499;66.348;14.134;2023-06-19T04:17:06;5.93;;;5.33;;
12861;SDS011;6499;66.348;14.134;2023-06-19T04:19:33;6.13;;;5.53;;
12861;SDS011;6499;66.348;14.134;2023-06-19T04:21:59;6.40;;;5.90;;
12861;SDS011;6499;66.348;14.134;2023-06-19T04:24:26;6.03;;;5.53;;
12861;SDS011;6499;66.348;14.134;2023-06-19T04:26:52;6.30;;;5.80;;
12861;SDS011;6499;66.348;14.134;2023-06-19T04:29:19;5.57;;;5.17;;
12861;SDS011;6499;66.348;14.134;2023-06-19T04:31:47;6.10;;;5.60;;
12861;SDS011;6499;66.348;14.134;2023-06-19T04:34:15;6.10;;;5.50;;
12861;SDS011;6499;66.348;14.134;2023-06-19T04:36:42;6.00;;;5.50;;
12861;SDS011;6499;66.348;14.134;2023-06-19T04:39:08;6.63;;;6.03;;
12861;SDS011;6499;66.348;14.134;2023-06-19T04:41:36;6.93;;;6.20;;
12861;SDS011;6499;66.348;14.134;2023-06-19T04:44:04;7.33;;;5.30;;
12861;SDS011;6499;66.348;14.134;2023-06-19T04:46:31;6.53;;;5.93;;
12861;SDS011;6499;66.348;14.134;2023-06-19T04:48:58;6.53;;;5.93;;
12861;SDS011;6499;66.348;14.134;2023-06-19T04:51:25;6.30;;;5.70;;
12861;SDS011;6499;66.348;14.134;2023-06-19T04:53:52;5.80;;;5.30;;
12861;SDS011;6499;66.348;14.134;2023-06-19T04:56:18;6.17;;;5.67;;
12861;SDS011;6499;66.348;14.134;2023-06-19T04:58:45;6.80;;;6.10;;
12861;SDS011;6499;66.348;14.134;2023-06-19T05:01:12;6.07;;;5.57;;
12861;SDS011;6499;66.348;14.134;2023-06-19T05:03:39;6.40;;;5.90;;
12861;SDS011;6499;66.348;14.134;2023-06-19T05:06:07;6.20;;;5.60;;
12861;SDS011;6499;66.348;14.134;2023-06-19T05:08:33;5.60;;;5.10;;
12861;SDS011;6499;66.348;14.134;2023-06-19T05:11:00;6.30;;;5.70;;
12861;SDS011;6499;66.348;14.134;2023-06-19T05:13:27;6.17;;;5.63;;
12861;SDS011;6499;66.348;14.134;2023-06-19T05:15:53;6.00;;;5.50;;
12861;SDS011;6499;66.348;14.134;2023-06-19T05:18:21;6.50;;;6.00;;
12861;SDS011;6499;66.348;14.134;2023-06-19T05:20:47;6.47;;;5.67;;
12861;SDS011;6499;66.348;14.134;2023-06-19T05:23:15;5.80;;;5.30;;
12861;SDS011;6499;66.348;14.134;2023-06-19T05:25:42;6.40;;;5.80;;
12861;SDS011;6499;66.348;14.134;2023-06-19T05:28:08;6.30;;;5.73;;
12861;SDS011;6499;66.348;14.134;2023-06-19T05:30:35;7.13;;;6.23;;
12861;SDS011;6499;66.348;14.134;2023-06-19T05:33:02;6.10;;;5.60;;
12861;SDS011;6499;66.348;14.134;2023-06-19T05:35:28;6.17;;;5.57;;
12861;SDS011;6499;66.348;14.134;2023-06-19T05:37:57;7.10;;;5.87;;
12861;SDS011;6499;66.348;14.134;2023-06-19T05:40:24;6.47;;;5.97;;
12861;SDS011;6499;66.348;14.134;2023-06-19T05:42:51;6.90;;;5.93;;
12861;SDS011;6499;66.348;14.134;2023-06-19T05:45:18;6.93;;;6.40;;
12861;SDS011;6499;66.348;14.134;2023-06-19T05:47:44;6.53;;;5.93;;
12861;SDS011;6499;66.348;14.134;2023-06-19T05:50:11;6.43;;;5.73;;
12861;SDS011;6499;66.348;14.134;2023-06-19T05:52:37;6.33;;;5.77;;
12861;SDS011;6499;66.348;14.134;2023-06-19T05:55:08;6.00;;;5.50;;
12861;SDS011;6499;66.348;14.134;2023-06-19T05:57:36;6.10;;;5.60;;
12861;SDS011;6499;66.348;14.134;2023-06-19T06:00:02;6.17;;;5.67;;
12861;SDS011;6499;66.348;14.134;2023-06-19T06:02:31;6.77;;;6.17;;
12861;SDS011;6499;66.348;14.134;2023-06-19T06:04:57;6.40;;;5.90;;
12861;SDS011;6499;66.348;14.134;2023-06-19T06:07:24;6.50;;;5.87;;
12861;SDS011;6499;66.348;14.134;2023-06-19T06:09:52;6.50;;;5.90;;
12861;SDS011;6499;66.348;14.134;2023-06-19T06:12:19;6.57;;;5.97;;
12861;SDS011;6499;66.348;14.134;2023-06-19T06:14:47;6.63;;;6.13;;
12861;SDS011;6499;66.348;14.134;2023-06-19T06:17:14;8.47;;;6.10;;
12861;SDS011;6499;66.348;14.134;2023-06-19T06:19:40;6.63;;;6.03;;
12861;SDS011;6499;66.348;14.134;2023-06-19T06:22:07;6.53;;;5.93;;
12861;SDS011;6499;66.348;14.134;2023-06-19T06:24:33;6.33;;;5.73;;
12861;SDS011;6499;66.348;14.134;2023-06-19T06:27:00;6.30;;;5.60;;
12861;SDS011;6499;66.348;14.134;2023-06-19T06:29:26;6.10;;;5.60;;
12861;SDS011;6499;66.348;14.134;2023-06-19T06:32:02;6.87;;;6.27;;
12861;SDS011;6499;66.348;14.134;2023-06-19T06:34:28;6.53;;;5.90;;
12861;SDS011;6499;66.348;14.134;2023-06-19T06:36:55;6.77;;;5.93;;
12861;SDS011;6499;66.348;14.134;2023-06-19T06:39:21;6.93;;;6.23;;
12861;SDS011;6499;66.348;14.134;2023-06-19T06:41:48;6.20;;;5.67;;
12861;SDS011;6499;66.348;14.134;2023-06-19T06:44:14;6.73;;;5.57;;
12861;SDS011;6499;66.348;14.134;2023-06-19T06:46:41;8.07;;;6.00;;
12861;SDS011;6499;66.348;14.134;2023-06-19T06:49:09;6.13;;;5.63;;
12861;SDS011;6499;66.348;14.134;2023-06-19T06:51:36;6.57;;;5.70;;
12861;SDS011;6499;66.348;14.134;2023-06-19T06:54:02;7.40;;;6.57;;
12861;SDS011;6499;66.348;14.134;2023-06-19T06:56:29;6.57;;;6.00;;
12861;SDS011;6499;66.348;14.134;2023-06-19T06:58:55;6.80;;;6.13;;
12861;SDS011;6499;66.348;14.134;2023-06-19T07:01:22;6.90;;;6.30;;
12861;SDS011;6499;66.348;14.134;2023-06-19T07:03:48;6.97;;;6.27;;
12861;SDS011;6499;66.348;14.134;2023-06-19T07:06:16;6.27;;;5.70;;
12861;SDS011;6499;66.348;14.134;2023-06-19T07:08:43;6.87;;;6.27;;
12861;SDS011;6499;66.348;14.134;2023-06-19T07:11:12;7.37;;;6.40;;
12861;SDS011;6499;66.348;14.134;2023-06-19T07:13:39;6.77;;;6.00;;
12861;SDS011;6499;66.348;14.134;2023-06-19T07:16:06;6.40;;;5.80;;
12861;SDS011;6499;66.348;14.134;2023-06-19T07:18:33;6.67;;;6.00;;
12861;SDS011;6499;66.348;14.134;2023-06-19T07:21:00;8.67;;;6.17;;
12861;SDS011;6499;66.348;14.134;2023-06-19T07:23:29;9.20;;;6.60;;
12861;SDS011;6499;66.348;14.134;2023-06-19T07:25:55;7.10;;;6.20;;
12861;SDS011;6499;66.348;14.134;2023-06-19T07:28:24;8.47;;;6.27;;
12861;SDS011;6499;66.348;14.134;2023-06-19T07:30:51;6.70;;;6.10;;
12861;SDS011;6499;66.348;14.134;2023-06-19T07:33:18;6.73;;;6.17;;
12861;SDS011;6499;66.348;14.134;2023-06-19T07:35:45;7.10;;;6.50;;
12861;SDS011;6499;66.348;14.134;2023-06-19T07:38:11;6.27;;;5.63;;
12861;SDS011;6499;66.348;14.134;2023-06-19T07:40:39;7.10;;;6.40;;
12861;SDS011;6499;66.348;14.134;2023-06-19T07:43:05;6.60;;;6.00;;
12861;SDS011;6499;66.348;14.134;2023-06-19T07:45:32;7.27;;;6.60;;
12861;SDS011;6499;66.348;14.134;2023-06-19T07:47:58;7.43;;;6.07;;
12861;SDS011;6499;66.348;14.134;2023-06-19T07:50:25;7.23;;;6.60;;
12861;SDS011;6499;66.348;14.134;2023-06-19T07:52:52;7.27;;;6.57;;
12861;SDS011;6499;66.348;14.134;2023-06-19T07:55:18;6.80;;;6.20;;
12861;SDS011;6499;66.348;14.134;2023-06-19T07:57:46;7.03;;;6.37;;
12861;SDS011;6499;66.348;14.134;2023-06-19T08:00:13;6.50;;;5.90;;
12861;SDS011;6499;66.348;14.134;2023-06-19T08:02:40;6.97;;;6.37;;
12861;SDS011;6499;66.348;14.134;2023-06-19T08:05:07;6.87;;;6.10;;
12861;SDS011;6499;66.348;14.134;2023-06-19T08:07:34;6.83;;;6.13;;
12861;SDS011;6499;66.348;14.134;2023-06-19T08:10:00;6.80;;;6.20;;
12861;SDS011;6499;66.348;14.134;2023-06-19T08:12:29;7.10;;;6.50;;
12861;SDS011;6499;66.348;14.134;2023-06-19T08:14:56;7.37;;;6.60;;
12861;SDS011;6499;66.348;14.134;2023-06-19T08:17:23;6.97;;;6.30;;
12861;SDS011;6499;66.348;14.134;2023-06-19T08:19:50;6.87;;;6.37;;
12861;SDS011;6499;66.348;14.134;2023-06-19T08:22:16;7.50;;;6.30;;
12861;SDS011;6499;66.348;14.134;2023-06-19T08:24:43;7.73;;;6.93;;
12861;SDS011;6499;66.348;14.134;2023-06-19T08:27:09;7.43;;;6.20;;
12861;SDS011;6499;66.348;14.134;2023-06-19T08:29:36;6.80;;;6.10;;
12861;SDS011;6499;66.348;14.134;2023-06-19T08:32:04;7.00;;;6.40;;
12861;SDS011;6499;66.348;14.134;2023-06-19T08:34:33;6.87;;;6.27;;
12861;SDS011;6499;66.348;14.134;2023-06-19T08:36:59;6.93;;;6.33;;
12861;SDS011;6499;66.348;14.134;2023-06-19T08:39:26;8.07;;;6.97;;
12861;SDS011;6499;66.348;14.134;2023-06-19T08:41:52;7.37;;;6.57;;
12861;SDS011;6499;66.348;14.134;2023-06-19T08:44:19;6.77;;;6.20;;
12861;SDS011;6499;66.348;14.134;2023-06-19T08:46:45;6.70;;;6.20;;
12861;SDS011;6499;66.348;14.134;2023-06-19T08:49:13;6.70;;;6.10;;
12861;SDS011;6499;66.348;14.134;2023-06-19T08:51:40;7.30;;;6.70;;
12861;SDS011;6499;66.348;14.134;2023-06-19T08:54:07;7.27;;;6.47;;
12861;SDS011;6499;66.348;14.134;2023-06-19T08:56:34;7.00;;;6.40;;
12861;SDS011;6499;66.348;14.134;2023-06-19T08:59:09;7.20;;;6.50;;
12861;SDS011;6499;66.348;14.134;2023-06-19T09:01:36;7.70;;;7.00;;
12861;SDS011;6499;66.348;14.134;2023-06-19T09:04:09;7.50;;;6.87;;
12861;SDS011;6499;66.348;14.134;2023-06-19T09:06:38;7.90;;;7.17;;
12861;SDS011;6499;66.348;14.134;2023-06-19T09:09:13;8.17;;;7.33;;
12861;SDS011;6499;66.348;14.134;2023-06-19T09:11:40;7.97;;;7.27;;
12861;SDS011;6499;66.348;14.134;2023-06-19T09:14:08;8.23;;;7.40;;
12861;SDS011;6499;66.348;14.134;2023-06-19T09:16:38;7.93;;;7.13;;
12861;SDS011;6499;66.348;14.134;2023-06-19T09:19:05;8.67;;;7.83;;
12861;SDS011;6499;66.348;14.134;2023-06-19T09:21:34;8.83;;;7.93;;
12861;SDS011;6499;66.348;14.134;2023-06-19T09:24:07;7.50;;;6.90;;
12861;SDS011;6499;66.348;14.134;2023-06-19T09:26:34;8.27;;;7.40;;
12861;SDS011;6499;66.348;14.134;2023-06-19T09:31:43;8.10;;;7.30;;
12861;SDS011;6499;66.348;14.134;2023-06-19T09:34:11;10.10;;;7.43;;
12861;SDS011;6499;66.348;14.134;2023-06-19T09:36:42;8.27;;;7.43;;
12861;SDS011;6499;66.348;14.134;2023-06-19T09:39:12;8.93;;;7.30;;
12861;SDS011;6499;66.348;14.134;2023-06-19T09:41:40;8.07;;;7.20;;
12861;SDS011;6499;66.348;14.134;2023-06-19T09:44:07;7.90;;;7.17;;
12861;SDS011;6499;66.348;14.134;2023-06-19T09:46:39;7.47;;;6.63;;
12861;SDS011;6499;66.348;14.134;2023-06-19T09:49:07;7.83;;;7.13;;
12861;SDS011;6499;66.348;14.134;2023-06-19T09:51:37;7.37;;;6.77;;
12861;SDS011;6499;66.348;14.134;2023-06-19T09:54:04;7.20;;;6.60;;
12861;SDS011;6499;66.348;14.134;2023-06-19T09:56:33;8.10;;;7.30;;
12861;SDS011;6499;66.348;14.134;2023-06-19T09:59:00;7.47;;;6.77;;
12861;SDS011;6499;66.348;14.134;2023-06-19T10:01:27;8.60;;;7.63;;
12861;SDS011;6499;66.348;14.134;2023-06-19T10:04:04;7.90;;;7.20;;
12861;SDS011;6499;66.348;14.134;2023-06-19T10:06:31;7.47;;;6.87;;
12861;SDS011;6499;66.348;14.134;2023-06-19T10:09:05;9.30;;;7.03;;
12861;SDS011;6499;66.348;14.134;2023-06-19T10:11:45;8.00;;;7.30;;
12861;SDS011;6499;66.348;14.134;2023-06-19T10:14:12;8.10;;;7.40;;
12861;SDS011;6499;66.348;14.134;2023-06-19T10:16:40;7.50;;;6.80;;
12861;SDS011;6499;66.348;14.134;2023-06-19T10:19:11;7.80;;;7.00;;
12861;SDS011;6499;66.348;14.134;2023-06-19T10:21:46;7.40;;;6.70;;
12861;SDS011;6499;66.348;14.134;2023-06-19T10:24:16;8.33;;;6.50;;
12861;SDS011;6499;66.348;14.134;2023-06-19T10:26:55;7.13;;;6.47;;
12861;SDS011;6499;66.348;14.134;2023-06-19T10:29:21;8.07;;;6.83;;
12861;SDS011;6499;66.348;14.134;2023-06-19T10:31:52;7.30;;;6.70;;
12861;SDS011;6499;66.348;14.134;2023-06-19T10:34:19;7.10;;;6.50;;
12861;SDS011;6499;66.348;14.134;2023-06-19T10:36:53;7.20;;;6.50;;
12861;SDS011;6499;66.348;14.134;2023-06-19T10:39:23;8.07;;;7.13;;
12861;SDS011;6499;66.348;14.134;2023-06-19T10:41:52;7.53;;;6.83;;
12861;SDS011;6499;66.348;14.134;2023-06-19T10:44:19;7.70;;;7.00;;
12861;SDS011;6499;66.348;14.134;2023-06-19T10:46:52;7.20;;;6.67;;
12861;SDS011;6499;66.348;14.134;2023-06-19T10:49:21;7.70;;;7.00;;
12861;SDS011;6499;66.348;14.134;2023-06-19T10:51:51;7.60;;;6.90;;
12861;SDS011;6499;66.348;14.134;2023-06-19T10:54:28;7.93;;;7.27;;
12861;SDS011;6499;66.348;14.134;2023-06-19T10:56:57;7.63;;;7.03;;
12861;SDS011;6499;66.348;14.134;2023-06-19T10:59:30;7.57;;;6.97;;
12861;SDS011;6499;66.348;14.134;2023-06-19T11:01:57;7.93;;;7.33;;
12861;SDS011;6499;66.348;14.134;2023-06-19T11:04:23;7.07;;;6.47;;
12861;SDS011;6499;66.348;14.134;2023-06-19T11:06:51;7.73;;;6.60;;
12861;SDS011;6499;66.348;14.134;2023-06-19T11:09:21;7.60;;;7.00;;
12861;SDS011;6499;66.348;14.134;2023-06-19T11:11:59;7.30;;;6.70;;
12861;SDS011;6499;66.348;14.134;2023-06-19T11:14:39;7.70;;;7.10;;
12861;SDS011;6499;66.348;14.134;2023-06-19T11:17:17;7.20;;;6.47;;
12861;SDS011;6499;66.348;14.134;2023-06-19T11:19:46;8.10;;;6.77;;
12861;SDS011;6499;66.348;14.134;2023-06-19T11:22:13;7.40;;;6.60;;
12861;SDS011;6499;66.348;14.134;2023-06-19T11:27:44;7.10;;;6.60;;
12861;SDS011;6499;66.348;14.134;2023-06-19T11:30:30;7.63;;;7.00;;
12861;SDS011;6499;66.348;14.134;2023-06-19T11:32:57;7.20;;;6.60;;
12861;SDS011;6499;66.348;14.134;2023-06-19T11:35:31;6.87;;;6.37;;
12861;SDS011;6499;66.348;14.134;2023-06-19T11:38:01;7.47;;;6.87;;
12861;SDS011;6499;66.348;14.134;2023-06-19T11:40:28;7.13;;;6.43;;
12861;SDS011;6499;66.348;14.134;2023-06-19T11:42:57;7.53;;;6.90;;
12861;SDS011;6499;66.348;14.134;2023-06-19T11:45:24;7.33;;;6.73;;
12861;SDS011;6499;66.348;14.134;2023-06-19T11:47:51;7.60;;;6.93;;
12861;SDS011;6499;66.348;14.134;2023-06-19T11:50:29;7.93;;;7.27;;
12861;SDS011;6499;66.348;14.134;2023-06-19T11:52:55;7.33;;;6.73;;
12861;SDS011;6499;66.348;14.134;2023-06-19T11:55:26;7.60;;;6.97;;
12861;SDS011;6499;66.348;14.134;2023-06-19T11:57:53;7.67;;;6.87;;
12861;SDS011;6499;66.348;14.134;2023-06-19T12:00:24;8.43;;;7.10;;
12861;SDS011;6499;66.348;14.134;2023-06-19T12:02:53;8.53;;;7.83;;
12861;SDS011;6499;66.348;14.134;2023-06-19T12:05:22;7.70;;;7.00;;
12861;SDS011;6499;66.348;14.134;2023-06-19T12:07:49;7.57;;;6.90;;
12861;SDS011;6499;66.348;14.134;2023-06-19T12:10:16;7.83;;;7.13;;
12861;SDS011;6499;66.348;14.134;2023-06-19T12:12:42;8.73;;;7.80;;
12861;SDS011;6499;66.348;14.134;2023-06-19T12:15:09;8.20;;;7.40;;
12861;SDS011;6499;66.348;14.134;2023-06-19T12:17:37;7.07;;;6.57;;
12861;SDS011;6499;66.348;14.134;2023-06-19T12:20:04;7.70;;;6.90;;
12861;SDS011;6499;66.348;14.134;2023-06-19T12:22:32;7.67;;;6.90;;
12861;SDS011;6499;66.348;14.134;2023-06-19T12:24:59;7.33;;;6.77;;
12861;SDS011;6499;66.348;14.134;2023-06-19T12:27:25;7.63;;;6.93;;
12861;SDS011;6499;66.348;14.134;2023-06-19T12:29:52;7.20;;;6.60;;
12861;SDS011;6499;66.348;14.134;2023-06-19T12:32:19;7.13;;;6.43;;
12861;SDS011;6499;66.348;14.134;2023-06-19T12:34:47;7.47;;;6.87;;
12861;SDS011;6499;66.348;14.134;2023-06-19T12:37:14;7.47;;;6.87;;
12861;SDS011;6499;66.348;14.134;2023-06-19T12:39:43;6.93;;;6.43;;
12861;SDS011;6499;66.348;14.134;2023-06-19T12:42:09;6.80;;;6.30;;
12861;SDS011;6499;66.348;14.134;2023-06-19T12:44:37;7.07;;;6.27;;
12861;SDS011;6499;66.348;14.134;2023-06-19T12:47:04;6.70;;;6.10;;
12861;SDS011;6499;66.348;14.134;2023-06-19T12:49:31;7.13;;;6.47;;
12861;SDS011;6499;66.348;14.134;2023-06-19T12:51:59;7.40;;;6.83;;
12861;SDS011;6499;66.348;14.134;2023-06-19T12:54:26;7.40;;;6.70;;
12861;SDS011;6499;66.348;14.134;2023-06-19T12:56:53;6.43;;;5.93;;
12861;SDS011;6499;66.348;14.134;2023-06-19T12:59:19;7.00;;;6.50;;
12861;SDS011;6499;66.348;14.134;2023-06-19T13:01:46;6.80;;;6.20;;
12861;SDS011;6499;66.348;14.134;2023-06-19T13:04:12;7.17;;;6.67;;
12861;SDS011;6499;66.348;14.134;2023-06-19T13:06:40;6.53;;;5.93;;
12861;SDS011;6499;66.348;14.134;2023-06-19T13:09:10;7.33;;;6.03;;
12861;SDS011;6499;66.348;14.134;2023-06-19T13:11:37;6.70;;;6.20;;
12861;SDS011;6499;66.348;14.134;2023-06-19T13:14:04;7.20;;;6.50;;
12861;SDS011;6499;66.348;14.134;2023-06-19T13:16:31;7.47;;;6.27;;
12861;SDS011;6499;66.348;14.134;2023-06-19T13:18:57;7.10;;;6.43;;
12861;SDS011;6499;66.348;14.134;2023-06-19T13:21:24;6.57;;;6.07;;
12861;SDS011;6499;66.348;14.134;2023-06-19T13:23:50;6.70;;;6.00;;
12861;SDS011;6499;66.348;14.134;2023-06-19T13:26:18;7.60;;;6.87;;
12861;SDS011;6499;66.348;14.134;2023-06-19T13:28:45;6.50;;;6.10;;
12861;SDS011;6499;66.348;14.134;2023-06-19T13:31:11;6.60;;;5.80;;
12861;SDS011;6499;66.348;14.134;2023-06-19T13:33:38;6.63;;;6.03;;
12861;SDS011;6499;66.348;14.134;2023-06-19T13:36:05;6.73;;;6.20;;
12861;SDS011;6499;66.348;14.134;2023-06-19T13:38:31;6.43;;;5.93;;
12861;SDS011;6499;66.348;14.134;2023-06-19T13:40:58;6.20;;;5.80;;
12861;SDS011;6499;66.348;14.134;2023-06-19T13:43:26;5.67;;;5.27;;
12861;SDS011;6499;66.348;14.134;2023-06-19T13:45:53;6.30;;;5.80;;
12861;SDS011;6499;66.348;14.134;2023-06-19T13:48:20;6.37;;;5.87;;
12861;SDS011;6499;66.348;14.134;2023-06-19T13:50:46;6.03;;;5.63;;
12861;SDS011;6499;66.348;14.134;2023-06-19T13:53:13;6.13;;;5.63;;
12861;SDS011;6499;66.348;14.134;2023-06-19T13:55:40;6.67;;;6.00;;
12861;SDS011;6499;66.348;14.134;2023-06-19T13:58:06;8.23;;;5.90;;
12861;SDS011;6499;66.348;14.134;2023-06-19T14:00:34;6.47;;;5.67;;
12861;SDS011;6499;66.348;14.134;2023-06-19T14:03:02;7.13;;;6.40;;
12861;SDS011;6499;66.348;14.134;2023-06-19T14:05:31;6.10;;;5.60;;
12861;SDS011;6499;66.348;14.134;2023-06-19T14:07:58;6.63;;;6.03;;
12861;SDS011;6499;66.348;14.134;2023-06-19T14:10:25;6.10;;;5.60;;
12861;SDS011;6499;66.348;14.134;2023-06-19T14:12:52;6.40;;;5.80;;
12861;SDS011;6499;66.348;14.134;2023-06-19T14:15:19;7.03;;;5.90;;
12861;SDS011;6499;66.348;14.134;2023-06-19T14:17:47;6.23;;;5.57;;
12861;SDS011;6499;66.348;14.134;2023-06-19T14:20:14;7.03;;;5.73;;
12861;SDS011;6499;66.348;14.134;2023-06-19T14:22:40;6.57;;;6.00;;
12861;SDS011;6499;66.348;14.134;2023-06-19T14:25:07;7.53;;;5.80;;
12861;SDS011;6499;66.348;14.134;2023-06-19T14:27:34;7.20;;;6.50;;
12861;SDS011;6499;66.348;14.134;2023-06-19T14:30:01;6.33;;;5.90;;
12861;SDS011;6499;66.348;14.134;2023-06-19T14:32:29;6.33;;;5.83;;
12861;SDS011;6499;66.348;14.134;2023-06-19T14:34:57;6.53;;;6.03;;
12861;SDS011;6499;66.348;14.134;2023-06-19T14:37:24;6.70;;;6.13;;
12861;SDS011;6499;66.348;14.134;2023-06-19T14:39:50;6.50;;;6.00;;
12861;SDS011;6499;66.348;14.134;2023-06-19T14:42:17;6.40;;;5.90;;
12861;SDS011;6499;66.348;14.134;2023-06-19T14:44:43;7.37;;;6.13;;
12861;SDS011;6499;66.348;14.134;2023-06-19T14:47:10;6.60;;;5.90;;
12861;SDS011;6499;66.348;14.134;2023-06-19T14:49:36;6.63;;;6.13;;
12861;SDS011;6499;66.348;14.134;2023-06-19T14:52:05;6.87;;;6.23;;
12861;SDS011;6499;66.348;14.134;2023-06-19T14:54:32;6.97;;;6.43;;
12861;SDS011;6499;66.348;14.134;2023-06-19T14:56:59;7.10;;;6.50;;